sensor_id;sensor_type;location;lat;lon;timestamp;temperature;humidity
26212;DHT22;13951;49.516;6.094;2023-02-01T00:00:34;5.10;99.90
26212;DHT22;13951;49.516;6.094;2023-02-01T00:03:07;5.10;99.90
26212;DHT22;13951;49.516;6.094;2023-02-01T00:05:40;5.10;99.90
26212;DHT22;13951;49.516;6.094;2023-02-01T00:08:13;5.10;99.90
26212;DHT22;13951;49.516;6.094;2023-02-01T00:10:46;5.10;99.90
26212;DHT22;13951;49.516;6.094;2023-02-01T00:13:19;5.10;99.90
26212;DHT22;13951;49.516;6.094;2023-02-01T00:15:51;5.10;99.90
26212;DHT22;13951;49.516;6.094;2023-02-01T00:18:24;5.10;99.90
26212;DHT22;13951;49.516;6.094;2023-02-01T00:20:57;5.10;99.90
26212;DHT22;13951;49.516;6.094;2023-02-01T00:23:34;5.10;99.90
26212;DHT22;13951;49.516;6.094;2023-02-01T00:26:18;5.10;99.90
26212;DHT22;13951;49.516;6.094;2023-02-01T00:28:51;5.20;99.90
26212;DHT22;13951;49.516;6.094;2023-02-01T00:31:24;5.20;99.90
26212;DHT22;13951;49.516;6.094;2023-02-01T00:34:00;5.10;99.90
26212;DHT22;13951;49.516;6.094;2023-02-01T00:36:33;5.20;99.90
26212;DHT22;13951;49.516;6.094;2023-02-01T00:39:07;5.20;99.90
26212;DHT22;13951;49.516;6.094;2023-02-01T00:41:39;5.20;99.90
26212;DHT22;13951;49.516;6.094;2023-02-01T00:44:13;5.20;99.90
26212;DHT22;13951;49.516;6.094;2023-02-01T00:46:45;5.20;99.90
26212;DHT22;13951;49.516;6.094;2023-02-01T00:49:19;5.20;99.90
26212;DHT22;13951;49.516;6.094;2023-02-01T00:51:51;5.20;99.90
26212;DHT22;13951;49.516;6.094;2023-02-01T00:54:24;5.20;99.90
26212;DHT22;13951;49.516;6.094;2023-02-01T00:56:57;5.20;99.90
26212;DHT22;13951;49.516;6.094;2023-02-01T00:59:30;5.30;99.90
26212;DHT22;13951;49.516;6.094;2023-02-01T01:02:02;5.30;99.90
26212;DHT22;13951;49.516;6.094;2023-02-01T01:04:35;5.30;99.90
26212;DHT22;13951;49.516;6.094;2023-02-01T01:07:08;5.30;99.90
26212;DHT22;13951;49.516;6.094;2023-02-01T01:09:41;5.30;99.90
26212;DHT22;13951;49.516;6.094;2023-02-01T01:12:13;5.30;99.90
26212;DHT22;13951;49.516;6.094;2023-02-01T01:14:46;5.20;99.90
26212;DHT22;13951;49.516;6.094;2023-02-01T01:17:19;5.30;99.90
26212;DHT22;13951;49.516;6.094;2023-02-01T01:19:51;5.30;99.90
26212;DHT22;13951;49.516;6.094;2023-02-01T01:22:24;5.30;99.90
26212;DHT22;13951;49.516;6.094;2023-02-01T01:24:57;5.30;99.90
26212;DHT22;13951;49.516;6.094;2023-02-01T01:27:30;5.30;99.90
26212;DHT22;13951;49.516;6.094;2023-02-01T01:30:03;5.30;99.90
26212;DHT22;13951;49.516;6.094;2023-02-01T01:32:35;5.30;99.90
26212;DHT22;13951;49.516;6.094;2023-02-01T01:35:08;5.30;99.90
26212;DHT22;13951;49.516;6.094;2023-02-01T01:37:42;5.30;99.90
26212;DHT22;13951;49.516;6.094;2023-02-01T01:40:15;5.30;99.90
26212;DHT22;13951;49.516;6.094;2023-02-01T01:42:48;5.30;99.90
26212;DHT22;13951;49.516;6.094;2023-02-01T01:45:31;5.40;99.90
26212;DHT22;13951;49.516;6.094;2023-02-01T01:48:20;5.40;99.90
26212;DHT22;13951;49.516;6.094;2023-02-01T01:51:01;5.40;99.90
26212;DHT22;13951;49.516;6.094;2023-02-01T01:53:41;5.40;99.90
26212;DHT22;13951;49.516;6.094;2023-02-01T01:56:17;5.30;99.90
26212;DHT22;13951;49.516;6.094;2023-02-01T01:58:50;5.40;99.90
26212;DHT22;13951;49.516;6.094;2023-02-01T02:01:24;5.30;99.90
26212;DHT22;13951;49.516;6.094;2023-02-01T02:03:58;5.30;99.90
26212;DHT22;13951;49.516;6.094;2023-02-01T02:06:50;5.30;99.90
26212;DHT22;13951;49.516;6.094;2023-02-01T02:09:24;5.40;99.90
26212;DHT22;13951;49.516;6.094;2023-02-01T02:11:57;5.40;99.90
26212;DHT22;13951;49.516;6.094;2023-02-01T02:14:30;5.30;99.90
26212;DHT22;13951;49.516;6.094;2023-02-01T02:33:41;5.40;99.90
26212;DHT22;13951;49.516;6.094;2023-02-01T02:44:47;5.50;99.90
26212;DHT22;13951;49.516;6.094;2023-02-01T02:47:52;5.50;99.90
26212;DHT22;13951;49.516;6.094;2023-02-01T02:50:32;5.50;99.90
26212;DHT22;13951;49.516;6.094;2023-02-01T02:53:33;5.50;99.90
26212;DHT22;13951;49.516;6.094;2023-02-01T02:56:26;5.50;99.90
26212;DHT22;13951;49.516;6.094;2023-02-01T02:59:21;5.50;99.90
26212;DHT22;13951;49.516;6.094;2023-02-01T03:02:16;5.50;99.90
26212;DHT22;13951;49.516;6.094;2023-02-01T03:05:08;5.50;99.90
26212;DHT22;13951;49.516;6.094;2023-02-01T03:13:11;5.50;99.90
26212;DHT22;13951;49.516;6.094;2023-02-01T03:16:59;5.50;99.90
26212;DHT22;13951;49.516;6.094;2023-02-01T03:19:19;5.50;99.90
26212;DHT22;13951;49.516;6.094;2023-02-01T03:22:06;5.60;99.90
26212;DHT22;13951;49.516;6.094;2023-02-01T03:24:55;5.50;99.90
26212;DHT22;13951;49.516;6.094;2023-02-01T03:28:03;5.60;99.90
26212;DHT22;13951;49.516;6.094;2023-02-01T03:30:43;5.60;99.90
26212;DHT22;13951;49.516;6.094;2023-02-01T03:33:19;5.60;99.90
26212;DHT22;13951;49.516;6.094;2023-02-01T03:36:05;5.60;99.90
26212;DHT22;13951;49.516;6.094;2023-02-01T03:38:55;5.50;99.90
26212;DHT22;13951;49.516;6.094;2023-02-01T03:44:32;5.50;99.90
26212;DHT22;13951;49.516;6.094;2023-02-01T03:47:09;5.60;99.90
26212;DHT22;13951;49.516;6.094;2023-02-01T03:49:46;5.60;99.90
26212;DHT22;13951;49.516;6.094;2023-02-01T03:55:16;5.60;99.90
26212;DHT22;13951;49.516;6.094;2023-02-01T04:00:35;5.60;99.90
26212;DHT22;13951;49.516;6.094;2023-02-01T04:03:08;5.60;99.90
26212;DHT22;13951;49.516;6.094;2023-02-01T04:05:41;5.60;99.90
26212;DHT22;13951;49.516;6.094;2023-02-01T04:08:15;5.60;99.90
26212;DHT22;13951;49.516;6.094;2023-02-01T04:10:48;5.60;99.90
26212;DHT22;13951;49.516;6.094;2023-02-01T04:13:21;5.60;99.90
26212;DHT22;13951;49.516;6.094;2023-02-01T04:15:54;5.60;99.90
26212;DHT22;13951;49.516;6.094;2023-02-01T04:18:26;5.60;99.90
26212;DHT22;13951;49.516;6.094;2023-02-01T04:20:59;5.60;99.90
26212;DHT22;13951;49.516;6.094;2023-02-01T04:23:33;5.60;99.90
26212;DHT22;13951;49.516;6.094;2023-02-01T04:26:06;5.60;99.90
26212;DHT22;13951;49.516;6.094;2023-02-01T04:28:39;5.60;99.90
26212;DHT22;13951;49.516;6.094;2023-02-01T04:31:12;5.60;99.90
26212;DHT22;13951;49.516;6.094;2023-02-01T04:33:45;5.50;99.90
26212;DHT22;13951;49.516;6.094;2023-02-01T04:36:18;5.50;99.90
26212;DHT22;13951;49.516;6.094;2023-02-01T04:38:53;5.50;99.90
26212;DHT22;13951;49.516;6.094;2023-02-01T04:41:25;5.50;99.90
26212;DHT22;13951;49.516;6.094;2023-02-01T04:43:58;5.50;99.90
26212;DHT22;13951;49.516;6.094;2023-02-01T04:46:31;5.40;99.90
26212;DHT22;13951;49.516;6.094;2023-02-01T04:49:04;5.40;99.90
26212;DHT22;13951;49.516;6.094;2023-02-01T04:51:37;5.40;99.90
26212;DHT22;13951;49.516;6.094;2023-02-01T04:54:10;5.50;99.90
26212;DHT22;13951;49.516;6.094;2023-02-01T04:56:45;5.50;99.90
26212;DHT22;13951;49.516;6.094;2023-02-01T04:59:18;5.50;99.90
26212;DHT22;13951;49.516;6.094;2023-02-01T05:01:51;5.40;99.90
26212;DHT22;13951;49.516;6.094;2023-02-01T05:04:23;5.50;99.90
26212;DHT22;13951;49.516;6.094;2023-02-01T05:06:56;5.50;99.90
26212;DHT22;13951;49.516;6.094;2023-02-01T05:09:29;5.50;99.90
26212;DHT22;13951;49.516;6.094;2023-02-01T05:12:02;5.50;99.90
26212;DHT22;13951;49.516;6.094;2023-02-01T05:14:53;5.50;99.90
26212;DHT22;13951;49.516;6.094;2023-02-01T05:17:26;5.40;99.90
26212;DHT22;13951;49.516;6.094;2023-02-01T05:19:59;5.50;99.90
26212;DHT22;13951;49.516;6.094;2023-02-01T05:22:32;5.50;99.90
26212;DHT22;13951;49.516;6.094;2023-02-01T05:25:05;5.50;99.90
26212;DHT22;13951;49.516;6.094;2023-02-01T05:27:40;5.50;99.90
26212;DHT22;13951;49.516;6.094;2023-02-01T05:30:13;5.50;99.90
26212;DHT22;13951;49.516;6.094;2023-02-01T05:32:49;5.50;99.90
26212;DHT22;13951;49.516;6.094;2023-02-01T05:35:22;5.50;99.90
26212;DHT22;13951;49.516;6.094;2023-02-01T05:37:55;5.50;99.90
26212;DHT22;13951;49.516;6.094;2023-02-01T05:40:28;5.50;99.90
26212;DHT22;13951;49.516;6.094;2023-02-01T05:43:01;5.50;99.90
26212;DHT22;13951;49.516;6.094;2023-02-01T05:45:33;5.50;99.90
26212;DHT22;13951;49.516;6.094;2023-02-01T05:48:06;5.50;99.90
26212;DHT22;13951;49.516;6.094;2023-02-01T05:50:39;5.40;99.90
26212;DHT22;13951;49.516;6.094;2023-02-01T05:53:14;5.40;99.90
26212;DHT22;13951;49.516;6.094;2023-02-01T05:55:47;5.40;99.90
26212;DHT22;13951;49.516;6.094;2023-02-01T05:58:19;5.40;99.90
26212;DHT22;13951;49.516;6.094;2023-02-01T06:00:52;5.40;99.90
26212;DHT22;13951;49.516;6.094;2023-02-01T06:03:25;5.40;99.90
26212;DHT22;13951;49.516;6.094;2023-02-01T06:05:58;5.40;99.90
26212;DHT22;13951;49.516;6.094;2023-02-01T06:08:32;5.40;99.90
26212;DHT22;13951;49.516;6.094;2023-02-01T06:11:05;5.30;99.90
26212;DHT22;13951;49.516;6.094;2023-02-01T06:13:38;5.30;99.90
26212;DHT22;13951;49.516;6.094;2023-02-01T06:16:11;5.30;99.90
26212;DHT22;13951;49.516;6.094;2023-02-01T06:18:44;5.30;99.90
26212;DHT22;13951;49.516;6.094;2023-02-01T06:21:16;5.30;99.90
26212;DHT22;13951;49.516;6.094;2023-02-01T06:23:56;5.30;99.90
26212;DHT22;13951;49.516;6.094;2023-02-01T06:26:30;5.20;99.90
26212;DHT22;13951;49.516;6.094;2023-02-01T06:29:03;5.30;99.90
26212;DHT22;13951;49.516;6.094;2023-02-01T06:31:35;5.20;99.90
26212;DHT22;13951;49.516;6.094;2023-02-01T06:34:08;5.20;99.90
26212;DHT22;13951;49.516;6.094;2023-02-01T06:36:41;5.20;99.90
26212;DHT22;13951;49.516;6.094;2023-02-01T06:39:14;5.20;99.90
26212;DHT22;13951;49.516;6.094;2023-02-01T06:41:48;5.10;99.90
26212;DHT22;13951;49.516;6.094;2023-02-01T06:44:21;5.10;99.90
26212;DHT22;13951;49.516;6.094;2023-02-01T06:46:54;5.00;99.90
26212;DHT22;13951;49.516;6.094;2023-02-01T06:49:28;5.00;99.90
26212;DHT22;13951;49.516;6.094;2023-02-01T06:52:05;5.00;99.90
26212;DHT22;13951;49.516;6.094;2023-02-01T06:54:47;4.90;99.90
26212;DHT22;13951;49.516;6.094;2023-02-01T06:57:20;4.90;99.90
26212;DHT22;13951;49.516;6.094;2023-02-01T06:59:53;4.80;99.90
26212;DHT22;13951;49.516;6.094;2023-02-01T07:02:26;4.80;99.90
26212;DHT22;13951;49.516;6.094;2023-02-01T07:04:58;4.70;99.90
26212;DHT22;13951;49.516;6.094;2023-02-01T07:07:31;4.70;99.90
26212;DHT22;13951;49.516;6.094;2023-02-01T07:10:04;4.70;99.90
26212;DHT22;13951;49.516;6.094;2023-02-01T07:12:37;4.70;99.90
26212;DHT22;13951;49.516;6.094;2023-02-01T07:15:10;4.70;99.90
26212;DHT22;13951;49.516;6.094;2023-02-01T07:17:42;4.70;99.90
26212;DHT22;13951;49.516;6.094;2023-02-01T07:20:17;4.70;99.90
26212;DHT22;13951;49.516;6.094;2023-02-01T07:22:55;4.70;99.90
26212;DHT22;13951;49.516;6.094;2023-02-01T07:25:28;4.70;99.90
26212;DHT22;13951;49.516;6.094;2023-02-01T07:28:00;4.70;99.90
26212;DHT22;13951;49.516;6.094;2023-02-01T07:30:33;4.60;99.90
26212;DHT22;13951;49.516;6.094;2023-02-01T07:33:06;4.70;99.90
26212;DHT22;13951;49.516;6.094;2023-02-01T07:35:39;4.70;99.90
26212;DHT22;13951;49.516;6.094;2023-02-01T07:38:12;4.70;99.90
26212;DHT22;13951;49.516;6.094;2023-02-01T07:40:45;4.70;99.90
26212;DHT22;13951;49.516;6.094;2023-02-01T07:43:18;4.80;99.90
26212;DHT22;13951;49.516;6.094;2023-02-01T07:45:52;4.80;99.90
26212;DHT22;13951;49.516;6.094;2023-02-01T07:48:26;4.80;99.90
26212;DHT22;13951;49.516;6.094;2023-02-01T07:51:04;4.70;99.90
26212;DHT22;13951;49.516;6.094;2023-02-01T07:53:38;4.70;99.90
26212;DHT22;13951;49.516;6.094;2023-02-01T07:56:16;4.60;99.90
26212;DHT22;13951;49.516;6.094;2023-02-01T07:58:50;4.60;99.90
26212;DHT22;13951;49.516;6.094;2023-02-01T08:01:26;4.70;99.90
26212;DHT22;13951;49.516;6.094;2023-02-01T08:04:01;4.70;99.90
26212;DHT22;13951;49.516;6.094;2023-02-01T08:06:34;4.80;99.90
26212;DHT22;13951;49.516;6.094;2023-02-01T08:09:07;4.80;99.90
26212;DHT22;13951;49.516;6.094;2023-02-01T08:11:40;4.80;99.90
26212;DHT22;13951;49.516;6.094;2023-02-01T08:14:13;4.90;99.90
26212;DHT22;13951;49.516;6.094;2023-02-01T08:16:46;4.90;99.90
26212;DHT22;13951;49.516;6.094;2023-02-01T08:19:19;4.90;99.90
26212;DHT22;13951;49.516;6.094;2023-02-01T08:21:52;4.90;99.90
26212;DHT22;13951;49.516;6.094;2023-02-01T08:24:24;5.00;99.90
26212;DHT22;13951;49.516;6.094;2023-02-01T08:26:57;4.90;99.90
26212;DHT22;13951;49.516;6.094;2023-02-01T08:29:30;4.90;99.90
26212;DHT22;13951;49.516;6.094;2023-02-01T08:32:03;5.00;99.90
26212;DHT22;13951;49.516;6.094;2023-02-01T08:34:35;5.00;99.90
26212;DHT22;13951;49.516;6.094;2023-02-01T08:37:08;5.00;99.90
26212;DHT22;13951;49.516;6.094;2023-02-01T08:39:41;5.00;99.90
26212;DHT22;13951;49.516;6.094;2023-02-01T08:42:19;5.10;99.90
26212;DHT22;13951;49.516;6.094;2023-02-01T08:45:10;5.10;99.90
26212;DHT22;13951;49.516;6.094;2023-02-01T08:47:43;5.10;99.90
26212;DHT22;13951;49.516;6.094;2023-02-01T08:50:16;5.10;99.90
26212;DHT22;13951;49.516;6.094;2023-02-01T08:52:50;5.20;99.90
26212;DHT22;13951;49.516;6.094;2023-02-01T08:55:22;5.20;99.90
26212;DHT22;13951;49.516;6.094;2023-02-01T08:57:56;5.20;99.90
26212;DHT22;13951;49.516;6.094;2023-02-01T09:00:29;5.20;99.90
26212;DHT22;13951;49.516;6.094;2023-02-01T09:03:02;5.30;99.90
26212;DHT22;13951;49.516;6.094;2023-02-01T09:05:34;5.30;99.90
26212;DHT22;13951;49.516;6.094;2023-02-01T09:08:20;5.30;99.90
26212;DHT22;13951;49.516;6.094;2023-02-01T09:10:57;5.40;99.90
26212;DHT22;13951;49.516;6.094;2023-02-01T09:13:34;5.40;99.90
26212;DHT22;13951;49.516;6.094;2023-02-01T09:16:08;5.40;99.90
26212;DHT22;13951;49.516;6.094;2023-02-01T09:18:41;5.40;99.90
26212;DHT22;13951;49.516;6.094;2023-02-01T09:21:33;5.40;99.90
26212;DHT22;13951;49.516;6.094;2023-02-01T09:24:06;5.40;99.90
26212;DHT22;13951;49.516;6.094;2023-02-01T09:26:42;5.40;99.90
26212;DHT22;13951;49.516;6.094;2023-02-01T09:29:15;5.40;99.90
26212;DHT22;13951;49.516;6.094;2023-02-01T09:31:48;5.40;99.90
26212;DHT22;13951;49.516;6.094;2023-02-01T09:34:34;5.50;99.90
26212;DHT22;13951;49.516;6.094;2023-02-01T09:37:07;5.50;99.90
26212;DHT22;13951;49.516;6.094;2023-02-01T09:39:40;5.50;99.90
26212;DHT22;13951;49.516;6.094;2023-02-01T09:42:25;5.50;99.90
26212;DHT22;13951;49.516;6.094;2023-02-01T09:45:36;5.60;99.90
26212;DHT22;13951;49.516;6.094;2023-02-01T09:48:17;5.60;99.90
26212;DHT22;13951;49.516;6.094;2023-02-01T09:50:56;5.60;99.90
26212;DHT22;13951;49.516;6.094;2023-02-01T09:53:37;5.60;99.90
26212;DHT22;13951;49.516;6.094;2023-02-01T09:56:23;5.60;99.90
26212;DHT22;13951;49.516;6.094;2023-02-01T09:59:06;5.60;99.90
26212;DHT22;13951;49.516;6.094;2023-02-01T10:01:41;5.60;99.90
26212;DHT22;13951;49.516;6.094;2023-02-01T10:04:19;5.60;99.90
26212;DHT22;13951;49.516;6.094;2023-02-01T10:10:40;5.60;99.90
26212;DHT22;13951;49.516;6.094;2023-02-01T10:13:25;5.60;99.90
26212;DHT22;13951;49.516;6.094;2023-02-01T10:19:06;5.60;99.90
26212;DHT22;13951;49.516;6.094;2023-02-01T10:22:08;5.60;99.90
26212;DHT22;13951;49.516;6.094;2023-02-01T10:24:47;5.70;99.90
26212;DHT22;13951;49.516;6.094;2023-02-01T10:27:38;5.70;99.90
26212;DHT22;13951;49.516;6.094;2023-02-01T10:32:45;5.90;99.90
26212;DHT22;13951;49.516;6.094;2023-02-01T10:35:28;5.90;99.90
26212;DHT22;13951;49.516;6.094;2023-02-01T10:38:03;6.00;99.90
26212;DHT22;13951;49.516;6.094;2023-02-01T10:40:38;6.00;99.90
26212;DHT22;13951;49.516;6.094;2023-02-01T11:55:55;5.90;99.90
26212;DHT22;13951;49.516;6.094;2023-02-01T12:04:25;6.10;99.90
26212;DHT22;13951;49.516;6.094;2023-02-01T12:07:17;6.20;99.90
26212;DHT22;13951;49.516;6.094;2023-02-01T12:10:05;6.20;99.90
26212;DHT22;13951;49.516;6.094;2023-02-01T12:13:08;6.30;99.90
26212;DHT22;13951;49.516;6.094;2023-02-01T12:16:02;6.40;99.90
26212;DHT22;13951;49.516;6.094;2023-02-01T12:24:46;6.50;99.90
26212;DHT22;13951;49.516;6.094;2023-02-01T12:33:30;6.50;99.90
26212;DHT22;13951;49.516;6.094;2023-02-01T12:39:31;6.50;99.90
26212;DHT22;13951;49.516;6.094;2023-02-01T12:42:23;6.60;99.90
26212;DHT22;13951;49.516;6.094;2023-02-01T12:47:52;6.80;99.90
26212;DHT22;13951;49.516;6.094;2023-02-01T12:50:32;6.90;99.90
26212;DHT22;13951;49.516;6.094;2023-02-01T12:53:15;6.80;99.90
26212;DHT22;13951;49.516;6.094;2023-02-01T12:56:01;6.90;99.90
26212;DHT22;13951;49.516;6.094;2023-02-01T12:58:46;6.90;99.90
26212;DHT22;13951;49.516;6.094;2023-02-01T13:04:42;7.20;99.90
26212;DHT22;13951;49.516;6.094;2023-02-01T13:07:21;7.40;99.90
26212;DHT22;13951;49.516;6.094;2023-02-01T13:10:24;7.90;99.90
26212;DHT22;13951;49.516;6.094;2023-02-01T13:13:11;8.50;99.90
26212;DHT22;13951;49.516;6.094;2023-02-01T13:16:04;9.20;99.90
26212;DHT22;13951;49.516;6.094;2023-02-01T13:18:42;9.30;99.90
26212;DHT22;13951;49.516;6.094;2023-02-01T13:21:21;9.90;99.90
26212;DHT22;13951;49.516;6.094;2023-02-01T13:26:28;11.10;99.90
26212;DHT22;13951;49.516;6.094;2023-02-01T13:29:11;11.10;99.90
26212;DHT22;13951;49.516;6.094;2023-02-01T13:32:03;11.00;99.90
26212;DHT22;13951;49.516;6.094;2023-02-01T13:40:46;9.00;99.90
26212;DHT22;13951;49.516;6.094;2023-02-01T13:43:29;8.50;99.90
26212;DHT22;13951;49.516;6.094;2023-02-01T13:46:08;8.10;99.90
26212;DHT22;13951;49.516;6.094;2023-02-01T13:48:49;7.80;99.90
26212;DHT22;13951;49.516;6.094;2023-02-01T13:51:36;7.70;99.90
26212;DHT22;13951;49.516;6.094;2023-02-01T13:57:02;7.40;99.90
26212;DHT22;13951;49.516;6.094;2023-02-01T13:59:48;7.30;99.90
26212;DHT22;13951;49.516;6.094;2023-02-01T14:10:53;7.00;99.90
26212;DHT22;13951;49.516;6.094;2023-02-01T14:16:16;7.00;99.90
26212;DHT22;13951;49.516;6.094;2023-02-01T14:18:58;7.00;99.90
26212;DHT22;13951;49.516;6.094;2023-02-01T14:21:33;7.00;99.90
26212;DHT22;13951;49.516;6.094;2023-02-01T14:26:46;6.90;99.90
26212;DHT22;13951;49.516;6.094;2023-02-01T14:29:33;6.90;99.90
26212;DHT22;13951;49.516;6.094;2023-02-01T14:32:16;6.80;99.90
26212;DHT22;13951;49.516;6.094;2023-02-01T14:34:53;6.80;99.90
26212;DHT22;13951;49.516;6.094;2023-02-01T14:37:34;6.80;99.90
26212;DHT22;13951;49.516;6.094;2023-02-01T14:40:20;6.80;99.90
26212;DHT22;13951;49.516;6.094;2023-02-01T14:42:55;6.70;99.90
26212;DHT22;13951;49.516;6.094;2023-02-01T14:50:48;6.60;99.90
26212;DHT22;13951;49.516;6.094;2023-02-01T14:53:32;6.50;99.90
26212;DHT22;13951;49.516;6.094;2023-02-01T14:59:01;6.50;99.90
26212;DHT22;13951;49.516;6.094;2023-02-01T15:01:48;6.50;99.90
26212;DHT22;13951;49.516;6.094;2023-02-01T15:04:26;6.50;99.90
26212;DHT22;13951;49.516;6.094;2023-02-01T15:07:07;6.40;99.90
26212;DHT22;13951;49.516;6.094;2023-02-01T15:09:45;6.40;99.90
26212;DHT22;13951;49.516;6.094;2023-02-01T15:12:25;6.40;99.90
26212;DHT22;13951;49.516;6.094;2023-02-01T15:15:17;6.40;99.90
26212;DHT22;13951;49.516;6.094;2023-02-01T15:17:57;6.40;99.90
26212;DHT22;13951;49.516;6.094;2023-02-01T15:20:34;6.40;99.90
26212;DHT22;13951;49.516;6.094;2023-02-01T15:23:16;6.50;99.90
26212;DHT22;13951;49.516;6.094;2023-02-01T15:25:50;6.50;99.90
26212;DHT22;13951;49.516;6.094;2023-02-01T15:28:26;6.50;99.90
26212;DHT22;13951;49.516;6.094;2023-02-01T15:31:03;6.50;99.90
26212;DHT22;13951;49.516;6.094;2023-02-01T15:33:36;6.50;99.90
26212;DHT22;13951;49.516;6.094;2023-02-01T15:36:11;6.60;99.90
26212;DHT22;13951;49.516;6.094;2023-02-01T15:39:28;6.60;99.90
26212;DHT22;13951;49.516;6.094;2023-02-01T15:42:12;6.60;99.90
26212;DHT22;13951;49.516;6.094;2023-02-01T15:44:48;6.60;99.90
26212;DHT22;13951;49.516;6.094;2023-02-01T15:47:27;6.60;99.90
26212;DHT22;13951;49.516;6.094;2023-02-01T15:50:01;6.50;99.90
26212;DHT22;13951;49.516;6.094;2023-02-01T15:52:40;6.50;99.90
26212;DHT22;13951;49.516;6.094;2023-02-01T15:55:43;6.50;99.90
26212;DHT22;13951;49.516;6.094;2023-02-01T15:58:22;6.50;99.90
26212;DHT22;13951;49.516;6.094;2023-02-01T16:00:59;6.50;99.90
26212;DHT22;13951;49.516;6.094;2023-02-01T16:03:44;6.40;99.90
26212;DHT22;13951;49.516;6.094;2023-02-01T16:11:41;6.40;99.90
26212;DHT22;13951;49.516;6.094;2023-02-01T16:14:15;6.40;99.90
26212;DHT22;13951;49.516;6.094;2023-02-01T16:16:49;6.40;99.90
26212;DHT22;13951;49.516;6.094;2023-02-01T16:19:22;6.40;99.90
26212;DHT22;13951;49.516;6.094;2023-02-01T16:22:00;6.40;99.90
26212;DHT22;13951;49.516;6.094;2023-02-01T16:24:32;6.40;99.90
26212;DHT22;13951;49.516;6.094;2023-02-01T16:27:05;6.40;99.90
26212;DHT22;13951;49.516;6.094;2023-02-01T16:29:39;6.40;99.90
26212;DHT22;13951;49.516;6.094;2023-02-01T16:32:19;6.40;99.90
26212;DHT22;13951;49.516;6.094;2023-02-01T16:34:53;6.40;99.90
26212;DHT22;13951;49.516;6.094;2023-02-01T16:37:26;6.40;99.90
26212;DHT22;13951;49.516;6.094;2023-02-01T16:40:00;6.40;99.90
26212;DHT22;13951;49.516;6.094;2023-02-01T16:42:33;6.40;99.90
26212;DHT22;13951;49.516;6.094;2023-02-01T16:45:06;6.30;99.90
26212;DHT22;13951;49.516;6.094;2023-02-01T16:47:43;6.30;99.90
26212;DHT22;13951;49.516;6.094;2023-02-01T16:50:20;6.30;99.90
26212;DHT22;13951;49.516;6.094;2023-02-01T16:52:55;6.30;99.90
26212;DHT22;13951;49.516;6.094;2023-02-01T16:55:28;6.30;99.90
26212;DHT22;13951;49.516;6.094;2023-02-01T16:58:01;6.30;99.90
26212;DHT22;13951;49.516;6.094;2023-02-01T17:00:34;6.30;99.90
26212;DHT22;13951;49.516;6.094;2023-02-01T17:03:10;6.20;99.90
26212;DHT22;13951;49.516;6.094;2023-02-01T17:05:51;6.20;99.90
26212;DHT22;13951;49.516;6.094;2023-02-01T17:08:30;6.20;99.90
26212;DHT22;13951;49.516;6.094;2023-02-01T17:11:07;6.20;99.90
26212;DHT22;13951;49.516;6.094;2023-02-01T17:13:41;6.10;99.90
26212;DHT22;13951;49.516;6.094;2023-02-01T17:18:57;6.10;99.90
26212;DHT22;13951;49.516;6.094;2023-02-01T17:22:11;6.10;99.90
26212;DHT22;13951;49.516;6.094;2023-02-01T17:24:36;6.10;99.90
26212;DHT22;13951;49.516;6.094;2023-02-01T17:27:20;6.10;99.90
26212;DHT22;13951;49.516;6.094;2023-02-01T17:29:53;6.10;99.90
26212;DHT22;13951;49.516;6.094;2023-02-01T17:32:28;6.10;99.90
26212;DHT22;13951;49.516;6.094;2023-02-01T17:35:01;6.10;99.90
26212;DHT22;13951;49.516;6.094;2023-02-01T17:37:34;6.10;99.90
26212;DHT22;13951;49.516;6.094;2023-02-01T17:40:09;6.10;99.90
26212;DHT22;13951;49.516;6.094;2023-02-01T17:42:42;6.10;99.90
26212;DHT22;13951;49.516;6.094;2023-02-01T17:45:39;6.10;99.90
26212;DHT22;13951;49.516;6.094;2023-02-01T17:48:12;6.00;99.90
26212;DHT22;13951;49.516;6.094;2023-02-01T17:50:46;6.00;99.90
26212;DHT22;13951;49.516;6.094;2023-02-01T17:53:20;6.00;99.90
26212;DHT22;13951;49.516;6.094;2023-02-01T17:55:56;6.00;99.90
26212;DHT22;13951;49.516;6.094;2023-02-01T17:58:33;5.90;99.90
26212;DHT22;13951;49.516;6.094;2023-02-01T18:01:08;5.90;99.90
26212;DHT22;13951;49.516;6.094;2023-02-01T18:03:42;5.80;99.90
26212;DHT22;13951;49.516;6.094;2023-02-01T18:06:17;5.80;99.90
26212;DHT22;13951;49.516;6.094;2023-02-01T18:08:51;5.80;99.90
26212;DHT22;13951;49.516;6.094;2023-02-01T18:11:24;5.80;99.90
26212;DHT22;13951;49.516;6.094;2023-02-01T18:13:57;5.90;99.90
26212;DHT22;13951;49.516;6.094;2023-02-01T18:16:32;5.90;99.90
26212;DHT22;13951;49.516;6.094;2023-02-01T18:19:08;6.00;99.90
26212;DHT22;13951;49.516;6.094;2023-02-01T18:21:42;6.00;99.90
26212;DHT22;13951;49.516;6.094;2023-02-01T18:24:15;6.00;99.90
26212;DHT22;13951;49.516;6.094;2023-02-01T18:26:48;6.00;99.90
26212;DHT22;13951;49.516;6.094;2023-02-01T18:29:21;6.00;99.90
26212;DHT22;13951;49.516;6.094;2023-02-01T18:31:54;6.10;99.90
26212;DHT22;13951;49.516;6.094;2023-02-01T18:34:27;6.00;99.90
26212;DHT22;13951;49.516;6.094;2023-02-01T18:37:01;6.10;99.90
26212;DHT22;13951;49.516;6.094;2023-02-01T18:39:34;6.10;99.90
26212;DHT22;13951;49.516;6.094;2023-02-01T18:42:08;6.10;99.90
26212;DHT22;13951;49.516;6.094;2023-02-01T18:44:42;6.10;99.90
26212;DHT22;13951;49.516;6.094;2023-02-01T18:47:15;6.10;99.90
26212;DHT22;13951;49.516;6.094;2023-02-01T18:49:48;6.00;99.90
26212;DHT22;13951;49.516;6.094;2023-02-01T18:52:21;6.00;99.90
26212;DHT22;13951;49.516;6.094;2023-02-01T18:54:53;6.00;99.90
26212;DHT22;13951;49.516;6.094;2023-02-01T18:57:31;6.00;99.90
26212;DHT22;13951;49.516;6.094;2023-02-01T19:00:07;6.00;99.90
26212;DHT22;13951;49.516;6.094;2023-02-01T19:02:40;6.10;99.90
26212;DHT22;13951;49.516;6.094;2023-02-01T19:05:15;6.10;99.90
26212;DHT22;13951;49.516;6.094;2023-02-01T19:07:47;6.10;99.90
26212;DHT22;13951;49.516;6.094;2023-02-01T19:10:22;6.10;99.90
26212;DHT22;13951;49.516;6.094;2023-02-01T19:12:55;6.10;99.90
26212;DHT22;13951;49.516;6.094;2023-02-01T19:15:29;6.10;99.90
26212;DHT22;13951;49.516;6.094;2023-02-01T19:18:02;6.10;99.90
26212;DHT22;13951;49.516;6.094;2023-02-01T19:20:37;6.10;99.90
26212;DHT22;13951;49.516;6.094;2023-02-01T19:23:13;6.10;99.90
26212;DHT22;13951;49.516;6.094;2023-02-01T19:25:47;6.10;99.90
26212;DHT22;13951;49.516;6.094;2023-02-01T19:28:20;6.10;99.90
26212;DHT22;13951;49.516;6.094;2023-02-01T19:31:03;6.10;99.90
26212;DHT22;13951;49.516;6.094;2023-02-01T19:33:36;6.00;99.90
26212;DHT22;13951;49.516;6.094;2023-02-01T19:36:09;6.00;99.90
26212;DHT22;13951;49.516;6.094;2023-02-01T19:38:42;6.10;99.90
26212;DHT22;13951;49.516;6.094;2023-02-01T19:41:15;6.10;99.90
26212;DHT22;13951;49.516;6.094;2023-02-01T19:43:48;6.10;99.90
26212;DHT22;13951;49.516;6.094;2023-02-01T19:46:21;6.00;99.90
26212;DHT22;13951;49.516;6.094;2023-02-01T19:48:53;6.10;99.90
26212;DHT22;13951;49.516;6.094;2023-02-01T19:51:26;6.00;99.90
26212;DHT22;13951;49.516;6.094;2023-02-01T19:54:00;6.00;99.90
26212;DHT22;13951;49.516;6.094;2023-02-01T19:56:34;6.00;99.90